Lake Placid Elementary School FL US WEATHERSTEM current weather conditions

sailwx.info

Wind from 038 at 2 knots gusting 6

Air temperature 23.8° C
Dewpoint 22.3° C

Last reported at 2020-Aug-12 00:00 UTC.
Time now 2020-Aug-12 00:42 UTC

Location: N 27°18' W 081°22'.
View on Google Maps.

See reports from other nearby stations

  
Tides and Currents Weather Stations Pressure Air Temp Water Temp Dewpoint Dewpoint Depression Visibility Wind Speed Wind Dir Waves Ship Positions
date/time (UTC)wind fromknots sea level pressurealtimeterstation pressurevisibilityair tempwater tempwave heightnotes
2020-Aug-12 00:00 038 2 gusting 6 23.8
2020-Aug-11 23:40 039 1 gusting 9 23.4
2020-Aug-11 23:30 050 4 gusting 8 23.6
2020-Aug-11 23:20 080 6 gusting 10 23.7
2020-Aug-11 23:10 090 3 gusting 11 23.7
2020-Aug-11 23:00 093 8 gusting 10 23.7
2020-Aug-11 22:40 080 8 gusting 13 24.3
2020-Aug-11 22:30 111 2 gusting 13 24.9
2020-Aug-11 22:20 310 7 gusting 14 25.2
2020-Aug-11 22:10 312 7 gusting 13 25.9
2020-Aug-11 22:00 017 6 gusting 14 27.1
2020-Aug-11 21:40 306 11 gusting 18 30.5
2020-Aug-11 21:30 125 1 gusting 7 33.7
2020-Aug-11 21:20 163 5 gusting 6 33.9
2020-Aug-11 21:10 128 1 gusting 6 33.9
2020-Aug-11 21:00 093 5 gusting 10 33.9
2020-Aug-11 20:40 142 7 gusting 10 34.6
2020-Aug-11 20:30 088 2 gusting 6 33.6
2020-Aug-11 20:20 117 6 gusting 9 33.6
2020-Aug-11 20:10 146 5 gusting 6 34.2
2020-Aug-11 20:00 104 1 gusting 7 33.9
2020-Aug-11 19:40 127 4 gusting 10 34.5
2020-Aug-11 19:30 088 9 gusting 10 34.7
2020-Aug-11 19:20 126 6 gusting 9 35.0
2020-Aug-11 19:10 131 2 gusting 8 34.4
2020-Aug-11 19:00 140 4 gusting 10 34.6
2020-Aug-11 18:40 079 4 gusting 8 34.7
2020-Aug-11 18:20 082 2 gusting 7 34.2
2020-Aug-11 18:10 074 4 gusting 8 34.2
2020-Aug-11 18:00 015 6 gusting 8 34.4
2020-Aug-11 17:50 034 2 gusting 12 33.8
2020-Aug-11 17:40 146 6 gusting 10 34.3
2020-Aug-11 17:30 038 4 gusting 8 34.4
2020-Aug-11 17:10 022 2 gusting 6 34.0
2020-Aug-11 17:00 094 3 gusting 7 33.6
2020-Aug-11 16:50 021 6 gusting 12 33.5
2020-Aug-11 16:40 022 2 gusting 8 33.6
2020-Aug-11 16:30 090 6 gusting 8 33.5
2020-Aug-11 16:10 323 2 gusting 4 31.7
2020-Aug-11 16:00 005 3 gusting 5 32.2
2020-Aug-11 15:50 024 3 gusting 5 31.2
2020-Aug-11 15:40 331 0 gusting 4 31.2
2020-Aug-11 15:30 360 1 gusting 6 31.8
2020-Aug-11 15:10 088 1 gusting 5 31.3
2020-Aug-11 15:00 31.3
2020-Aug-11 14:50 050 2 gusting 6 30.8
2020-Aug-11 14:40 015 2 gusting 6 30.4
2020-Aug-11 14:30 30.1
2020-Aug-11 14:10 028 3 gusting 6 30.1
2020-Aug-11 14:00 304 1 gusting 4 29.7
2020-Aug-11 13:50 277 3 gusting 4 29.4
2020-Aug-11 13:40 271 2 gusting 3 29.4
2020-Aug-11 13:30 278 0 gusting 2 29.2
2020-Aug-11 13:10 277 0 gusting 1 28.8
2020-Aug-11 13:00 277 0 gusting 2 28.5
2020-Aug-11 12:50 28.2
2020-Aug-11 12:40 277 1 gusting 2 27.9
2020-Aug-11 12:30 154 1 gusting 2 27.6
2020-Aug-11 12:20 135 0 gusting 1 27.3
2020-Aug-11 12:10 27.2
2020-Aug-11 11:50 135 26.3
2020-Aug-11 11:40 135 2 gusting 3 26.1
2020-Aug-11 11:30 135 2 gusting 2 25.9
2020-Aug-11 11:20 135 0 gusting 2 25.8
2020-Aug-11 11:10 135 2 gusting 3 25.8
2020-Aug-11 11:00 135 1 gusting 2 25.9
2020-Aug-11 10:50 135 1 gusting 3 26.0
2020-Aug-11 10:40 135 2 gusting 2 26.0
2020-Aug-11 10:30 135 1 gusting 2 26.1
2020-Aug-11 10:20 135 1 gusting 2 26.2
2020-Aug-11 10:10 135 2 gusting 2 26.2
2020-Aug-11 10:00 135 0 gusting 0 26.3
2020-Aug-11 09:50 26.1
2020-Aug-11 09:40 135 0 gusting 1 26.1
2020-Aug-11 09:30 135 0 gusting 0 26.1
2020-Aug-11 09:20 26.2
2020-Aug-11 09:10 26.3
2020-Aug-11 09:00 135 0 gusting 1 26.3
2020-Aug-11 08:50 26.4
2020-Aug-11 08:40 135 0 gusting 1 26.8
2020-Aug-11 08:30 135 0 gusting 2 26.7
2020-Aug-11 08:20 135 0 gusting 1 26.7
2020-Aug-11 08:10 26.9
2020-Aug-11 08:00 135 0 gusting 3 26.9
2020-Aug-11 07:50 088 1 gusting 3 26.8
2020-Aug-11 07:40 053 0 gusting 2 26.6
2020-Aug-11 07:30 26.8
2020-Aug-11 07:20 26.8
2020-Aug-11 07:10 053 1 gusting 1 26.7
2020-Aug-11 06:50 028 0 gusting 4 26.8
2020-Aug-11 06:40 071 0 gusting 2 26.9
2020-Aug-11 06:30 118 0 gusting 2 27.2
2020-Aug-11 06:20 27.3
2020-Aug-11 06:10 27.3
2020-Aug-11 05:50 27.2
2020-Aug-11 05:30 27.2
2020-Aug-11 05:20 091 1 gusting 3 27.2
2020-Aug-11 05:10 101 2 gusting 3 27.3
2020-Aug-11 05:00 095 0 gusting 2 27.6
2020-Aug-11 04:50 095 1 gusting 5 27.7
2020-Aug-11 04:40 27.7
2020-Aug-11 04:30 099 0 gusting 5 27.6
2020-Aug-11 04:20 102 2 gusting 5 27.4
2020-Aug-11 04:10 081 1 gusting 5 27.3
2020-Aug-11 03:50 036 1 gusting 5 27.3
2020-Aug-11 03:40 025 2 gusting 4 27.3
2020-Aug-11 03:30 028 1 gusting 5 27.4
2020-Aug-11 03:20 038 1 gusting 6 27.6
2020-Aug-11 03:10 022 2 gusting 8 27.8
2020-Aug-11 03:00 011 2 gusting 6 27.8
2020-Aug-11 02:50 306 1 gusting 2 27.7
2020-Aug-11 02:40 27.8
2020-Aug-11 02:30 304 1 gusting 4 27.9
2020-Aug-11 02:20 331 0 gusting 6 28.0
2020-Aug-11 02:10 309 3 gusting 5 28.0
2020-Aug-11 02:00 281 0 gusting 3 28.1
2020-Aug-11 01:50 268 2 gusting 2 28.2
2020-Aug-11 01:40 268 1 gusting 6 28.3
2020-Aug-11 01:30 267 1 gusting 6 28.7
2020-Aug-11 01:20 263 6 gusting 6 29.2
2020-Aug-11 01:10 177 0 gusting 5 30.1
2020-Aug-11 01:00 180 1 gusting 5 30.3
2020-Aug-11 00:50 159 0 gusting 4 30.3
2020-Aug-11 00:40 132 3 gusting 6 30.3
2020-Aug-11 00:30 149 3 gusting 6 30.5
2020-Aug-11 00:20 153 3 gusting 7 30.7
2020-Aug-11 00:10 105 2 gusting 5 30.8
2020-Aug-11 00:00 116 1 gusting 5 31.1
2020-Aug-10 23:50 136 2 gusting 7 31.3
2020-Aug-10 23:40 103 1 gusting 6 31.4
2020-Aug-10 23:30 117 2 gusting 6 31.6
2020-Aug-10 23:20 106 2 gusting 7 31.7
2020-Aug-10 23:10 099 6 gusting 7 31.9
2020-Aug-10 23:00 113 6 gusting 8 32.1
2020-Aug-10 22:50 101 6 gusting 8 32.3
2020-Aug-10 22:40 098 6 gusting 10 32.6
2020-Aug-10 22:30 098 6 gusting 10 33.1
2020-Aug-10 22:20 147 6 gusting 11 33.3
2020-Aug-10 22:10 076 6 gusting 13 33.3
2020-Aug-10 22:00 090 5 gusting 11 33.6
2020-Aug-10 21:50 118 5 gusting 12 33.4
2020-Aug-10 21:40 084 8 gusting 11 33.9
2020-Aug-10 21:30 077 9 gusting 12 33.7
2020-Aug-10 21:20 096 10 gusting 13 33.5
2020-Aug-10 21:10 089 8 gusting 13 33.8
2020-Aug-10 21:00 116 6 gusting 13 34.1
2020-Aug-10 20:50 111 2 gusting 11 35.0
2020-Aug-10 20:40 026 6 gusting 10 35.1
2020-Aug-10 20:30 106 5 gusting 11 34.7
2020-Aug-10 20:20 033 1 gusting 8 34.9
2020-Aug-10 20:10 098 6 gusting 10 34.9
2020-Aug-10 20:00 072 4 gusting 8 35.2
2020-Aug-10 19:50 094 2 gusting 8 34.8
2020-Aug-10 19:40 094 2 gusting 10 34.6
2020-Aug-10 19:30 106 6 gusting 7 34.8
2020-Aug-10 19:20 046 1 gusting 11 34.6
2020-Aug-10 19:10 099 2 gusting 10 35.0
2020-Aug-10 19:00 348 2 gusting 8 34.7
2020-Aug-10 18:50 060 3 gusting 8 34.7
2020-Aug-10 18:40 005 1 gusting 8 34.0
2020-Aug-10 18:30 005 3 gusting 8 34.2
2020-Aug-10 18:20 044 1 gusting 7 34.0
2020-Aug-10 18:10 082 4 gusting 9 34.3
2020-Aug-10 18:00 026 6 gusting 8 34.2
2020-Aug-10 17:50 030 1 gusting 6 33.5
2020-Aug-10 17:40 046 4 gusting 8 33.8
2020-Aug-10 17:30 121 8 gusting 10 34.0
2020-Aug-10 17:20 024 3 gusting 8 33.9
2020-Aug-10 17:10 037 0 gusting 7 34.1
2020-Aug-10 17:00 081 3 gusting 6 34.0
2020-Aug-10 16:50 030 4 gusting 8 33.3
2020-Aug-10 16:40 093 1 gusting 8 33.1
2020-Aug-10 16:30 092 2 gusting 8 33.5
2020-Aug-10 16:20 057 2 gusting 8 32.7
2020-Aug-10 16:10 038 2 gusting 7 33.3
2020-Aug-10 16:00 067 4 gusting 7 32.6
2020-Aug-10 15:50 053 1 gusting 6 32.3
2020-Aug-10 15:40 107 3 gusting 7 32.0
2020-Aug-10 15:30 026 2 gusting 6 31.6
2020-Aug-10 15:20 038 4 gusting 6 31.8
2020-Aug-10 15:10 005 5 gusting 7 31.2
2020-Aug-10 15:00 022 5 gusting 6 31.1
2020-Aug-10 14:50 075 4 gusting 6 30.1
2020-Aug-10 14:40 027 2 gusting 4 30.1
2020-Aug-10 14:20 29.5
2020-Aug-10 14:10 032 1 gusting 4 29.8
2020-Aug-10 14:00 080 0 gusting 4 30.1
2020-Aug-10 13:50 079 1 gusting 6 29.9
2020-Aug-10 13:40 130 2 gusting 6 29.4
2020-Aug-10 13:30 101 1 gusting 5 29.2
2020-Aug-10 13:20 116 1 gusting 4 29.3
2020-Aug-10 13:10 106 5 gusting 5 28.9
2020-Aug-10 13:00 078 0 gusting 6 28.8
2020-Aug-10 12:50 089 1 gusting 6 28.6
2020-Aug-10 12:40 107 5 gusting 6 28.2
2020-Aug-10 12:30 079 0 gusting 4 28.2
2020-Aug-10 12:10 081 3 gusting 4 27.6
2020-Aug-10 12:00 084 0 gusting 5 27.3
2020-Aug-10 11:50 044 1 gusting 3 26.9
2020-Aug-10 11:40 049 1 gusting 3 26.6
2020-Aug-10 11:30 082 0 gusting 3 26.2
2020-Aug-10 11:20 042 2 gusting 2 25.9
2020-Aug-10 11:10 046 0 gusting 3 25.8
2020-Aug-10 11:00 079 0 gusting 3 25.7
2020-Aug-10 10:50 079 0 gusting 4 25.6
2020-Aug-10 10:40 079 2 gusting 3 25.3
2020-Aug-10 10:20 019 0 gusting 4 25.3
2020-Aug-10 10:10 038 1 gusting 4 25.2
2020-Aug-10 09:50 044 1 gusting 5 24.9
2020-Aug-10 09:40 034 2 gusting 5 25.0
2020-Aug-10 09:30 027 2 gusting 3 25.0
2020-Aug-10 09:20 027 0 gusting 3 25.0
2020-Aug-10 09:10 027 1 gusting 3 25.1
2020-Aug-10 08:50 25.6
2020-Aug-10 08:40 022 0 gusting 1 25.6
2020-Aug-10 08:30 25.3
2020-Aug-10 08:20 25.2
2020-Aug-10 08:10 022 0 gusting 2 25.3
2020-Aug-10 08:00 022 0 gusting 3 25.4
2020-Aug-10 07:50 022 0 gusting 2 25.4
2020-Aug-10 07:40 022 0 gusting 1 25.4
2020-Aug-10 07:30 022 0 gusting 1 25.4
2020-Aug-10 07:20 022 0 gusting 1 25.7
2020-Aug-10 07:10 022 0 gusting 0 25.8
2020-Aug-10 07:00 022 0 gusting 1 25.7
2020-Aug-10 06:50 022 1 gusting 3 25.7
2020-Aug-10 06:30 022 3 gusting 3 25.7
2020-Aug-10 06:20 005 1 gusting 4 25.8
2020-Aug-10 06:10 028 1 gusting 3 25.9
2020-Aug-10 06:00 028 1 gusting 3 26.2
2020-Aug-10 05:50 090 0 gusting 1 26.6
2020-Aug-10 05:40 26.8
2020-Aug-10 05:30 26.8
2020-Aug-10 05:20 26.7
2020-Aug-10 05:10 090 0 gusting 2 26.8
2020-Aug-10 05:00 090 0 gusting 2 27.0
2020-Aug-10 04:50 27.4
2020-Aug-10 04:40 27.5
2020-Aug-10 04:30 087 0 gusting 3 27.6
2020-Aug-10 04:20 070 1 gusting 3 27.3
2020-Aug-10 04:10 280 1 gusting 1 27.3
2020-Aug-10 03:50 280 0 gusting 1 27.3
2020-Aug-10 03:40 280 0 gusting 1 27.2
2020-Aug-10 03:30 280 0 gusting 1 27.2
2020-Aug-10 03:20 27.1
2020-Aug-10 03:10 27.3
2020-Aug-10 03:00 280 0 gusting 2 27.2
2020-Aug-10 02:50 280 1 gusting 2 27.3
2020-Aug-10 02:40 280 2 gusting 3 27.3
2020-Aug-10 02:30 267 1 gusting 3 27.2
2020-Aug-10 02:20 277 1 gusting 6 27.3
2020-Aug-10 02:10 300 2 gusting 4 27.7
2020-Aug-10 02:00 286 2 gusting 6 27.9
2020-Aug-10 01:50 318 0 gusting 3 28.0
2020-Aug-10 01:40 057 0 gusting 2 28.4
2020-Aug-10 01:30 057 0 gusting 5 28.3
2020-Aug-10 01:20 047 3 gusting 3 29.4
2020-Aug-10 01:10 136 1 gusting 3 29.4
2020-Aug-10 01:00 154 2 gusting 3 29.6
2020-Aug-10 00:50 151 2 gusting 6 29.5
2020-Aug-10 00:40 151 2 gusting 6 29.6
2020-Aug-10 00:30 159 1 gusting 5 29.4
2020-Aug-10 00:20 030 2 gusting 3 29.2
2020-Aug-10 00:10 075 1 gusting 9 29.3
2020-Aug-10 00:00 296 6 gusting 9 29.2